If you wish to contribute or participate in the discussions about articles you are invited to join SKYbrary as a registered user

Dodge County

From SKYbrary Wiki
KUNU
Airport
ICAO: KUNU
Summary
Name Dodge County
Region North America
Territory United States US.gif
Location Juneau, Wisconsin
Main city served
Coordinates 43° 25' 35.5263", -88° 42' 0.7512"
AIP KUNU
Runways
Designator Length Width Surface
2/20 1227 m4,025.591 ft 23 m75.459 ft ASP
8/26 1542 m5,059.055 ft 30 m98.425 ft ASP
METAR
Observation KUNU 010955Z AUTO 03014G20KT 2SM -SN OVC013 M08/M10 A3014 RMK AO2 T10851102
Station Juneau, Dodge County Airport
Date/Time 01 February 2015 09:55:00
Wind direction 30°
Wind speed 14 kts
Lowest cloud amount overcast
Temperature
Dew point
Humidity 87%
QNH hPa
Weather condition light snow

Dodge County Airport

ICAO: KUNU IATA: UNU

Description

Dodge County Airport is a public airport located north of Juneau, Wisconsin.

Climatology

Humid continental climate (Köppen climate classification Dfa) - characterized by four seasons: cold, windy, snowy winters, mild springs, hot, humid summers, and crisp and relatively short autumns. Precipitation reaches its lowest in January and February and peaks in summer and latter half of spring.

Maps

Terrain

Loading map...

Airport Layout

Loading map...


Accidents & Serious Incidents at or in vicinity of KUNU

None on SKYbrary